sensor_id;sensor_type;location;lat;lon;timestamp;P1;durP1;ratioP1;P2;durP2;ratioP2
62050;SDS011;48008;51.204;6.766;2023-03-01T00:01:36;17.30;;;8.32;;
62050;SDS011;48008;51.204;6.766;2023-03-01T00:04:03;20.45;;;9.73;;
62050;SDS011;48008;51.204;6.766;2023-03-01T00:06:30;20.45;;;8.70;;
62050;SDS011;48008;51.204;6.766;2023-03-01T00:08:57;20.67;;;8.95;;
62050;SDS011;48008;51.204;6.766;2023-03-01T00:11:25;18.98;;;9.52;;
62050;SDS011;48008;51.204;6.766;2023-03-01T00:13:55;19.92;;;8.82;;
62050;SDS011;48008;51.204;6.766;2023-03-01T00:16:26;16.27;;;8.70;;
62050;SDS011;48008;51.204;6.766;2023-03-01T00:18:57;18.70;;;8.70;;
62050;SDS011;48008;51.204;6.766;2023-03-01T00:21:24;20.58;;;9.20;;
62050;SDS011;48008;51.204;6.766;2023-03-01T00:23:51;20.23;;;8.82;;
62050;SDS011;48008;51.204;6.766;2023-03-01T00:26:19;19.23;;;8.80;;
62050;SDS011;48008;51.204;6.766;2023-03-01T00:28:46;18.65;;;8.82;;
62050;SDS011;48008;51.204;6.766;2023-03-01T00:31:15;21.48;;;9.52;;
62050;SDS011;48008;51.204;6.766;2023-03-01T00:33:44;16.70;;;8.77;;
62050;SDS011;48008;51.204;6.766;2023-03-01T00:36:12;17.05;;;8.75;;
62050;SDS011;48008;51.204;6.766;2023-03-01T00:38:41;16.75;;;8.73;;
62050;SDS011;48008;51.204;6.766;2023-03-01T00:41:12;17.75;;;8.52;;
62050;SDS011;48008;51.204;6.766;2023-03-01T00:43:40;20.90;;;9.13;;
62050;SDS011;48008;51.204;6.766;2023-03-01T00:46:08;16.70;;;8.80;;
62050;SDS011;48008;51.204;6.766;2023-03-01T00:48:37;18.35;;;8.88;;
62050;SDS011;48008;51.204;6.766;2023-03-01T00:51:04;20.67;;;9.43;;
62050;SDS011;48008;51.204;6.766;2023-03-01T00:53:35;17.45;;;8.93;;
62050;SDS011;48008;51.204;6.766;2023-03-01T00:56:03;17.80;;;9.25;;
62050;SDS011;48008;51.204;6.766;2023-03-01T00:58:31;17.35;;;8.68;;
62050;SDS011;48008;51.204;6.766;2023-03-01T01:00:59;20.92;;;9.52;;
62050;SDS011;48008;51.204;6.766;2023-03-01T01:03:27;20.10;;;9.90;;
62050;SDS011;48008;51.204;6.766;2023-03-01T01:05:53;22.38;;;9.90;;
62050;SDS011;48008;51.204;6.766;2023-03-01T01:08:20;23.35;;;9.55;;
62050;SDS011;48008;51.204;6.766;2023-03-01T01:10:47;18.42;;;9.07;;
62050;SDS011;48008;51.204;6.766;2023-03-01T01:13:14;18.80;;;9.38;;
62050;SDS011;48008;51.204;6.766;2023-03-01T01:15:41;16.88;;;9.38;;
62050;SDS011;48008;51.204;6.766;2023-03-01T01:18:08;18.25;;;9.05;;
62050;SDS011;48008;51.204;6.766;2023-03-01T01:20:35;19.08;;;9.15;;
62050;SDS011;48008;51.204;6.766;2023-03-01T01:23:02;19.60;;;9.48;;
62050;SDS011;48008;51.204;6.766;2023-03-01T01:25:28;18.73;;;9.38;;
62050;SDS011;48008;51.204;6.766;2023-03-01T01:27:55;24.67;;;10.73;;
62050;SDS011;48008;51.204;6.766;2023-03-01T01:30:21;19.30;;;9.27;;
62050;SDS011;48008;51.204;6.766;2023-03-01T01:32:48;18.70;;;9.13;;
62050;SDS011;48008;51.204;6.766;2023-03-01T01:35:15;18.48;;;9.45;;
62050;SDS011;48008;51.204;6.766;2023-03-01T01:37:42;19.70;;;9.88;;
62050;SDS011;48008;51.204;6.766;2023-03-01T01:40:09;18.70;;;9.63;;
62050;SDS011;48008;51.204;6.766;2023-03-01T01:42:36;21.52;;;9.77;;
62050;SDS011;48008;51.204;6.766;2023-03-01T01:45:34;17.50;;;9.27;;
62050;SDS011;48008;51.204;6.766;2023-03-01T01:47:53;18.08;;;9.23;;
62050;SDS011;48008;51.204;6.766;2023-03-01T01:50:23;19.20;;;10.52;;
62050;SDS011;48008;51.204;6.766;2023-03-01T01:52:51;20.88;;;10.25;;
62050;SDS011;48008;51.204;6.766;2023-03-01T01:55:21;19.27;;;9.40;;
62050;SDS011;48008;51.204;6.766;2023-03-01T01:57:55;21.50;;;10.10;;
62050;SDS011;48008;51.204;6.766;2023-03-01T02:00:25;19.88;;;9.88;;
62050;SDS011;48008;51.204;6.766;2023-03-01T02:02:55;19.80;;;9.80;;
62050;SDS011;48008;51.204;6.766;2023-03-01T02:05:29;19.45;;;9.15;;
62050;SDS011;48008;51.204;6.766;2023-03-01T02:08:03;22.27;;;9.90;;
62050;SDS011;48008;51.204;6.766;2023-03-01T02:10:30;21.25;;;9.77;;
62050;SDS011;48008;51.204;6.766;2023-03-01T02:12:59;19.63;;;10.25;;
62050;SDS011;48008;51.204;6.766;2023-03-01T02:15:28;21.10;;;10.45;;
62050;SDS011;48008;51.204;6.766;2023-03-01T02:18:00;23.05;;;10.35;;
62050;SDS011;48008;51.204;6.766;2023-03-01T02:20:33;19.48;;;10.43;;
62050;SDS011;48008;51.204;6.766;2023-03-01T02:23:07;19.65;;;9.70;;
62050;SDS011;48008;51.204;6.766;2023-03-01T02:25:51;20.33;;;10.60;;
62050;SDS011;48008;51.204;6.766;2023-03-01T02:28:37;23.75;;;10.98;;
62050;SDS011;48008;51.204;6.766;2023-03-01T02:31:07;23.05;;;10.93;;
62050;SDS011;48008;51.204;6.766;2023-03-01T02:33:55;22.63;;;10.40;;
62050;SDS011;48008;51.204;6.766;2023-03-01T02:36:24;21.20;;;10.70;;
62050;SDS011;48008;51.204;6.766;2023-03-01T02:38:56;21.75;;;10.73;;
62050;SDS011;48008;51.204;6.766;2023-03-01T02:41:25;21.85;;;10.77;;
62050;SDS011;48008;51.204;6.766;2023-03-01T02:43:55;20.90;;;10.95;;
62050;SDS011;48008;51.204;6.766;2023-03-01T02:46:22;25.13;;;11.90;;
62050;SDS011;48008;51.204;6.766;2023-03-01T02:48:52;25.60;;;11.07;;
62050;SDS011;48008;51.204;6.766;2023-03-01T02:51:26;19.13;;;10.63;;
62050;SDS011;48008;51.204;6.766;2023-03-01T02:54:24;20.27;;;10.90;;
62050;SDS011;48008;51.204;6.766;2023-03-01T02:56:55;21.52;;;11.13;;
62050;SDS011;48008;51.204;6.766;2023-03-01T02:59:24;21.60;;;10.65;;
62050;SDS011;48008;51.204;6.766;2023-03-01T03:01:55;20.17;;;10.40;;
62050;SDS011;48008;51.204;6.766;2023-03-01T03:04:22;22.42;;;11.23;;
62050;SDS011;48008;51.204;6.766;2023-03-01T03:06:50;23.15;;;11.50;;
62050;SDS011;48008;51.204;6.766;2023-03-01T03:09:17;19.25;;;10.57;;
62050;SDS011;48008;51.204;6.766;2023-03-01T03:11:45;25.75;;;10.93;;
62050;SDS011;48008;51.204;6.766;2023-03-01T03:14:13;22.95;;;11.00;;
62050;SDS011;48008;51.204;6.766;2023-03-01T03:16:45;23.58;;;11.27;;
62050;SDS011;48008;51.204;6.766;2023-03-01T03:19:15;21.05;;;10.38;;
62050;SDS011;48008;51.204;6.766;2023-03-01T03:21:43;23.52;;;11.32;;
62050;SDS011;48008;51.204;6.766;2023-03-01T03:24:10;20.67;;;10.50;;
62050;SDS011;48008;51.204;6.766;2023-03-01T03:26:37;21.95;;;11.13;;
62050;SDS011;48008;51.204;6.766;2023-03-01T03:29:03;24.92;;;10.50;;
62050;SDS011;48008;51.204;6.766;2023-03-01T03:31:30;23.48;;;10.85;;
62050;SDS011;48008;51.204;6.766;2023-03-01T03:33:57;21.80;;;11.15;;
62050;SDS011;48008;51.204;6.766;2023-03-01T03:36:25;24.52;;;10.98;;
62050;SDS011;48008;51.204;6.766;2023-03-01T03:38:51;22.55;;;10.85;;
62050;SDS011;48008;51.204;6.766;2023-03-01T03:41:19;22.95;;;11.43;;
62050;SDS011;48008;51.204;6.766;2023-03-01T03:43:46;27.10;;;11.38;;
62050;SDS011;48008;51.204;6.766;2023-03-01T03:46:12;25.58;;;11.57;;
62050;SDS011;48008;51.204;6.766;2023-03-01T03:48:40;22.13;;;11.90;;
62050;SDS011;48008;51.204;6.766;2023-03-01T03:51:10;26.98;;;12.02;;
62050;SDS011;48008;51.204;6.766;2023-03-01T03:53:39;21.00;;;11.30;;
62050;SDS011;48008;51.204;6.766;2023-03-01T03:56:06;23.95;;;12.07;;
62050;SDS011;48008;51.204;6.766;2023-03-01T03:58:33;18.55;;;10.52;;
62050;SDS011;48008;51.204;6.766;2023-03-01T04:01:00;23.08;;;12.23;;
62050;SDS011;48008;51.204;6.766;2023-03-01T04:03:28;24.35;;;11.82;;
62050;SDS011;48008;51.204;6.766;2023-03-01T04:05:57;26.75;;;12.20;;
62050;SDS011;48008;51.204;6.766;2023-03-01T04:08:26;26.05;;;11.45;;
62050;SDS011;48008;51.204;6.766;2023-03-01T04:10:57;21.88;;;11.43;;
62050;SDS011;48008;51.204;6.766;2023-03-01T04:13:25;24.90;;;11.38;;
62050;SDS011;48008;51.204;6.766;2023-03-01T04:15:53;23.75;;;11.38;;
62050;SDS011;48008;51.204;6.766;2023-03-01T04:18:22;24.40;;;10.90;;
62050;SDS011;48008;51.204;6.766;2023-03-01T04:20:51;26.40;;;11.60;;
62050;SDS011;48008;51.204;6.766;2023-03-01T04:23:21;27.30;;;12.10;;
62050;SDS011;48008;51.204;6.766;2023-03-01T04:25:49;21.73;;;11.07;;
62050;SDS011;48008;51.204;6.766;2023-03-01T04:28:26;24.65;;;11.68;;
62050;SDS011;48008;51.204;6.766;2023-03-01T04:30:56;24.92;;;11.57;;
62050;SDS011;48008;51.204;6.766;2023-03-01T04:33:24;22.77;;;10.93;;
62050;SDS011;48008;51.204;6.766;2023-03-01T04:35:51;23.60;;;11.20;;
62050;SDS011;48008;51.204;6.766;2023-03-01T04:38:19;22.08;;;11.50;;
62050;SDS011;48008;51.204;6.766;2023-03-01T04:40:47;20.23;;;10.95;;
62050;SDS011;48008;51.204;6.766;2023-03-01T04:43:14;22.40;;;10.98;;
62050;SDS011;48008;51.204;6.766;2023-03-01T04:45:41;22.75;;;11.35;;
62050;SDS011;48008;51.204;6.766;2023-03-01T04:48:08;23.42;;;11.43;;
62050;SDS011;48008;51.204;6.766;2023-03-01T04:50:35;23.60;;;11.20;;
62050;SDS011;48008;51.204;6.766;2023-03-01T04:53:01;22.33;;;11.88;;
62050;SDS011;48008;51.204;6.766;2023-03-01T04:55:28;22.73;;;11.40;;
62050;SDS011;48008;51.204;6.766;2023-03-01T04:57:55;21.02;;;11.48;;
62050;SDS011;48008;51.204;6.766;2023-03-01T05:00:22;21.65;;;11.07;;
62050;SDS011;48008;51.204;6.766;2023-03-01T05:02:51;26.13;;;12.35;;
62050;SDS011;48008;51.204;6.766;2023-03-01T05:05:21;24.65;;;12.60;;
62050;SDS011;48008;51.204;6.766;2023-03-01T05:07:54;25.08;;;11.65;;
62050;SDS011;48008;51.204;6.766;2023-03-01T05:10:23;23.70;;;11.05;;
62050;SDS011;48008;51.204;6.766;2023-03-01T05:12:50;23.95;;;11.15;;
62050;SDS011;48008;51.204;6.766;2023-03-01T05:15:18;22.98;;;11.88;;
62050;SDS011;48008;51.204;6.766;2023-03-01T05:17:48;24.85;;;11.45;;
62050;SDS011;48008;51.204;6.766;2023-03-01T05:20:15;23.55;;;11.55;;
62050;SDS011;48008;51.204;6.766;2023-03-01T05:22:42;25.40;;;12.00;;
62050;SDS011;48008;51.204;6.766;2023-03-01T05:25:09;24.55;;;12.40;;
62050;SDS011;48008;51.204;6.766;2023-03-01T05:27:36;27.40;;;11.95;;
62050;SDS011;48008;51.204;6.766;2023-03-01T05:30:03;27.83;;;12.10;;
62050;SDS011;48008;51.204;6.766;2023-03-01T05:32:42;29.67;;;12.23;;
62050;SDS011;48008;51.204;6.766;2023-03-01T05:35:11;26.10;;;12.02;;
62050;SDS011;48008;51.204;6.766;2023-03-01T05:37:40;26.38;;;10.93;;
62050;SDS011;48008;51.204;6.766;2023-03-01T05:40:09;27.45;;;12.43;;
62050;SDS011;48008;51.204;6.766;2023-03-01T05:42:43;22.08;;;11.20;;
62050;SDS011;48008;51.204;6.766;2023-03-01T05:45:12;27.90;;;12.30;;
62050;SDS011;48008;51.204;6.766;2023-03-01T05:47:40;28.25;;;12.27;;
62050;SDS011;48008;51.204;6.766;2023-03-01T05:50:12;30.20;;;13.07;;
62050;SDS011;48008;51.204;6.766;2023-03-01T05:52:49;28.27;;;12.13;;
62050;SDS011;48008;51.204;6.766;2023-03-01T05:55:19;28.90;;;12.27;;
62050;SDS011;48008;51.204;6.766;2023-03-01T05:57:47;26.33;;;12.50;;
62050;SDS011;48008;51.204;6.766;2023-03-01T06:00:15;36.10;;;12.57;;
62050;SDS011;48008;51.204;6.766;2023-03-01T06:02:43;24.67;;;13.20;;
62050;SDS011;48008;51.204;6.766;2023-03-01T06:05:13;30.63;;;12.02;;
62050;SDS011;48008;51.204;6.766;2023-03-01T06:07:40;25.02;;;11.98;;
62050;SDS011;48008;51.204;6.766;2023-03-01T06:10:08;25.65;;;12.70;;
62050;SDS011;48008;51.204;6.766;2023-03-01T06:12:36;26.85;;;12.48;;
62050;SDS011;48008;51.204;6.766;2023-03-01T06:15:04;26.95;;;12.73;;
62050;SDS011;48008;51.204;6.766;2023-03-01T06:17:33;28.30;;;13.20;;
62050;SDS011;48008;51.204;6.766;2023-03-01T06:20:04;27.23;;;12.65;;
62050;SDS011;48008;51.204;6.766;2023-03-01T06:22:32;32.70;;;13.38;;
62050;SDS011;48008;51.204;6.766;2023-03-01T06:24:59;26.83;;;12.48;;
62050;SDS011;48008;51.204;6.766;2023-03-01T06:27:26;30.00;;;13.00;;
62050;SDS011;48008;51.204;6.766;2023-03-01T06:29:52;23.73;;;13.38;;
62050;SDS011;48008;51.204;6.766;2023-03-01T06:32:19;28.80;;;13.60;;
62050;SDS011;48008;51.204;6.766;2023-03-01T06:34:46;35.13;;;14.15;;
62050;SDS011;48008;51.204;6.766;2023-03-01T06:37:13;27.23;;;12.80;;
62050;SDS011;48008;51.204;6.766;2023-03-01T06:39:39;28.30;;;13.25;;
62050;SDS011;48008;51.204;6.766;2023-03-01T06:42:07;31.38;;;12.50;;
62050;SDS011;48008;51.204;6.766;2023-03-01T06:44:34;26.45;;;13.43;;
62050;SDS011;48008;51.204;6.766;2023-03-01T06:47:01;30.50;;;13.60;;
62050;SDS011;48008;51.204;6.766;2023-03-01T06:49:29;26.52;;;12.98;;
62050;SDS011;48008;51.204;6.766;2023-03-01T06:51:56;28.40;;;13.52;;
62050;SDS011;48008;51.204;6.766;2023-03-01T06:54:23;23.17;;;12.57;;
62050;SDS011;48008;51.204;6.766;2023-03-01T06:56:50;27.70;;;12.90;;
62050;SDS011;48008;51.204;6.766;2023-03-01T06:59:38;28.20;;;13.43;;
62050;SDS011;48008;51.204;6.766;2023-03-01T07:02:05;26.05;;;12.77;;
62050;SDS011;48008;51.204;6.766;2023-03-01T07:04:32;25.25;;;13.38;;
62050;SDS011;48008;51.204;6.766;2023-03-01T07:06:58;31.95;;;13.73;;
62050;SDS011;48008;51.204;6.766;2023-03-01T07:09:25;29.20;;;13.38;;
62050;SDS011;48008;51.204;6.766;2023-03-01T07:11:52;24.98;;;12.57;;
62050;SDS011;48008;51.204;6.766;2023-03-01T07:14:18;30.33;;;13.82;;
62050;SDS011;48008;51.204;6.766;2023-03-01T07:16:46;27.95;;;12.48;;
62050;SDS011;48008;51.204;6.766;2023-03-01T07:19:12;26.67;;;13.77;;
62050;SDS011;48008;51.204;6.766;2023-03-01T07:21:39;27.35;;;13.35;;
62050;SDS011;48008;51.204;6.766;2023-03-01T07:24:06;29.88;;;12.95;;
62050;SDS011;48008;51.204;6.766;2023-03-01T07:26:33;27.90;;;14.07;;
62050;SDS011;48008;51.204;6.766;2023-03-01T07:29:00;28.92;;;14.00;;
62050;SDS011;48008;51.204;6.766;2023-03-01T07:31:28;27.35;;;14.10;;
62050;SDS011;48008;51.204;6.766;2023-03-01T07:33:55;25.05;;;13.88;;
62050;SDS011;48008;51.204;6.766;2023-03-01T07:36:22;27.70;;;13.52;;
62050;SDS011;48008;51.204;6.766;2023-03-01T07:38:50;29.90;;;13.95;;
62050;SDS011;48008;51.204;6.766;2023-03-01T07:41:17;28.17;;;14.38;;
62050;SDS011;48008;51.204;6.766;2023-03-01T07:43:44;33.33;;;13.68;;
62050;SDS011;48008;51.204;6.766;2023-03-01T07:46:11;31.88;;;13.95;;
62050;SDS011;48008;51.204;6.766;2023-03-01T07:48:38;28.65;;;14.15;;
62050;SDS011;48008;51.204;6.766;2023-03-01T07:51:05;30.02;;;13.93;;
62050;SDS011;48008;51.204;6.766;2023-03-01T07:53:33;32.22;;;14.25;;
62050;SDS011;48008;51.204;6.766;2023-03-01T07:56:04;29.27;;;13.75;;
62050;SDS011;48008;51.204;6.766;2023-03-01T07:58:34;26.38;;;13.32;;
62050;SDS011;48008;51.204;6.766;2023-03-01T08:01:02;27.98;;;13.73;;
62050;SDS011;48008;51.204;6.766;2023-03-01T08:03:31;29.08;;;12.90;;
62050;SDS011;48008;51.204;6.766;2023-03-01T08:05:59;27.10;;;12.95;;
62050;SDS011;48008;51.204;6.766;2023-03-01T08:08:27;25.55;;;13.25;;
62050;SDS011;48008;51.204;6.766;2023-03-01T08:10:57;31.15;;;13.02;;
62050;SDS011;48008;51.204;6.766;2023-03-01T08:13:25;28.20;;;13.27;;
62050;SDS011;48008;51.204;6.766;2023-03-01T08:15:52;28.98;;;13.20;;
62050;SDS011;48008;51.204;6.766;2023-03-01T08:18:19;26.27;;;12.80;;
62050;SDS011;48008;51.204;6.766;2023-03-01T08:20:47;29.05;;;12.38;;
62050;SDS011;48008;51.204;6.766;2023-03-01T08:23:14;27.23;;;13.43;;
62050;SDS011;48008;51.204;6.766;2023-03-01T08:25:41;27.75;;;12.90;;
62050;SDS011;48008;51.204;6.766;2023-03-01T08:28:08;33.58;;;14.70;;
62050;SDS011;48008;51.204;6.766;2023-03-01T08:30:34;29.48;;;13.77;;
62050;SDS011;48008;51.204;6.766;2023-03-01T08:33:01;31.98;;;14.88;;
62050;SDS011;48008;51.204;6.766;2023-03-01T08:35:28;27.73;;;13.48;;
62050;SDS011;48008;51.204;6.766;2023-03-01T08:37:54;28.45;;;14.20;;
62050;SDS011;48008;51.204;6.766;2023-03-01T08:40:21;24.90;;;13.52;;
62050;SDS011;48008;51.204;6.766;2023-03-01T08:42:48;28.42;;;13.65;;
62050;SDS011;48008;51.204;6.766;2023-03-01T08:45:15;28.40;;;13.68;;
62050;SDS011;48008;51.204;6.766;2023-03-01T08:47:44;31.13;;;13.05;;
62050;SDS011;48008;51.204;6.766;2023-03-01T08:50:11;29.17;;;13.13;;
62050;SDS011;48008;51.204;6.766;2023-03-01T08:52:38;26.58;;;13.07;;
62050;SDS011;48008;51.204;6.766;2023-03-01T08:55:05;27.05;;;13.70;;
62050;SDS011;48008;51.204;6.766;2023-03-01T08:57:32;25.52;;;12.80;;
62050;SDS011;48008;51.204;6.766;2023-03-01T08:59:59;23.73;;;12.98;;
62050;SDS011;48008;51.204;6.766;2023-03-01T09:02:26;28.50;;;13.32;;
62050;SDS011;48008;51.204;6.766;2023-03-01T09:04:52;26.83;;;12.52;;
62050;SDS011;48008;51.204;6.766;2023-03-01T09:07:19;26.73;;;12.80;;
62050;SDS011;48008;51.204;6.766;2023-03-01T09:09:46;30.30;;;13.90;;
62050;SDS011;48008;51.204;6.766;2023-03-01T09:12:12;26.63;;;13.80;;
62050;SDS011;48008;51.204;6.766;2023-03-01T09:14:39;23.55;;;12.52;;
62050;SDS011;48008;51.204;6.766;2023-03-01T09:17:07;33.20;;;13.65;;
62050;SDS011;48008;51.204;6.766;2023-03-01T09:19:34;28.90;;;13.25;;
62050;SDS011;48008;51.204;6.766;2023-03-01T09:22:02;32.97;;;14.02;;
62050;SDS011;48008;51.204;6.766;2023-03-01T09:24:29;31.65;;;13.43;;
62050;SDS011;48008;51.204;6.766;2023-03-01T09:26:56;26.77;;;13.05;;
62050;SDS011;48008;51.204;6.766;2023-03-01T09:29:23;29.10;;;12.43;;
62050;SDS011;48008;51.204;6.766;2023-03-01T09:31:52;27.90;;;13.68;;
62050;SDS011;48008;51.204;6.766;2023-03-01T09:34:21;32.50;;;12.50;;
62050;SDS011;48008;51.204;6.766;2023-03-01T09:36:49;26.42;;;12.95;;
62050;SDS011;48008;51.204;6.766;2023-03-01T09:39:17;25.83;;;12.00;;
62050;SDS011;48008;51.204;6.766;2023-03-01T09:42:00;27.63;;;12.80;;
62050;SDS011;48008;51.204;6.766;2023-03-01T09:45:03;22.40;;;11.45;;
62050;SDS011;48008;51.204;6.766;2023-03-01T09:47:19;25.48;;;12.63;;
62050;SDS011;48008;51.204;6.766;2023-03-01T09:49:55;27.65;;;12.60;;
62050;SDS011;48008;51.204;6.766;2023-03-01T09:52:46;28.38;;;12.50;;
62050;SDS011;48008;51.204;6.766;2023-03-01T09:55:23;23.95;;;12.10;;
62050;SDS011;48008;51.204;6.766;2023-03-01T09:57:59;27.38;;;11.88;;
62050;SDS011;48008;51.204;6.766;2023-03-01T10:00:37;30.73;;;12.23;;
62050;SDS011;48008;51.204;6.766;2023-03-01T10:03:17;25.30;;;11.90;;
62050;SDS011;48008;51.204;6.766;2023-03-01T10:06:01;24.02;;;12.07;;
62050;SDS011;48008;51.204;6.766;2023-03-01T10:08:34;23.83;;;12.40;;
62050;SDS011;48008;51.204;6.766;2023-03-01T10:11:41;26.85;;;13.10;;
62050;SDS011;48008;51.204;6.766;2023-03-01T10:14:01;24.85;;;12.82;;
62050;SDS011;48008;51.204;6.766;2023-03-01T10:16:55;24.38;;;11.88;;
62050;SDS011;48008;51.204;6.766;2023-03-01T10:19:32;22.20;;;11.65;;
62050;SDS011;48008;51.204;6.766;2023-03-01T10:22:08;25.42;;;12.35;;
62050;SDS011;48008;51.204;6.766;2023-03-01T10:24:58;24.30;;;12.05;;
62050;SDS011;48008;51.204;6.766;2023-03-01T10:27:29;20.30;;;11.48;;
62050;SDS011;48008;51.204;6.766;2023-03-01T10:30:11;31.77;;;11.95;;
62050;SDS011;48008;51.204;6.766;2023-03-01T10:32:59;22.45;;;11.65;;
62050;SDS011;48008;51.204;6.766;2023-03-01T10:35:29;23.75;;;12.25;;
62050;SDS011;48008;51.204;6.766;2023-03-01T10:38:04;24.67;;;12.05;;
62050;SDS011;48008;51.204;6.766;2023-03-01T10:40:34;20.45;;;12.20;;
62050;SDS011;48008;51.204;6.766;2023-03-01T10:43:04;19.92;;;11.88;;
62050;SDS011;48008;51.204;6.766;2023-03-01T10:45:33;22.70;;;12.02;;
62050;SDS011;48008;51.204;6.766;2023-03-01T10:48:06;22.70;;;11.85;;
62050;SDS011;48008;51.204;6.766;2023-03-01T10:50:39;20.90;;;11.85;;
62050;SDS011;48008;51.204;6.766;2023-03-01T10:53:19;21.15;;;11.90;;
62050;SDS011;48008;51.204;6.766;2023-03-01T10:55:57;21.83;;;11.23;;
62050;SDS011;48008;51.204;6.766;2023-03-01T10:58:27;21.75;;;11.77;;
62050;SDS011;48008;51.204;6.766;2023-03-01T11:00:56;22.30;;;11.85;;
62050;SDS011;48008;51.204;6.766;2023-03-01T11:03:28;21.52;;;12.70;;
62050;SDS011;48008;51.204;6.766;2023-03-01T11:06:00;20.90;;;11.30;;
62050;SDS011;48008;51.204;6.766;2023-03-01T11:08:34;21.02;;;11.48;;
62050;SDS011;48008;51.204;6.766;2023-03-01T11:13:57;20.30;;;11.20;;
62050;SDS011;48008;51.204;6.766;2023-03-01T11:17:25;19.30;;;10.70;;
62050;SDS011;48008;51.204;6.766;2023-03-01T11:22:58;17.73;;;11.05;;
62050;SDS011;48008;51.204;6.766;2023-03-01T11:25:31;21.65;;;10.85;;
62050;SDS011;48008;51.204;6.766;2023-03-01T11:28:02;17.98;;;11.10;;
62050;SDS011;48008;51.204;6.766;2023-03-01T11:30:40;17.42;;;10.55;;
62050;SDS011;48008;51.204;6.766;2023-03-01T11:33:37;20.40;;;11.02;;
62050;SDS011;48008;51.204;6.766;2023-03-01T11:39:05;22.23;;;12.07;;
62050;SDS011;48008;51.204;6.766;2023-03-01T11:41:45;23.35;;;12.40;;
62050;SDS011;48008;51.204;6.766;2023-03-01T11:44:21;18.20;;;11.02;;
62050;SDS011;48008;51.204;6.766;2023-03-01T11:47:13;23.75;;;10.88;;
62050;SDS011;48008;51.204;6.766;2023-03-01T11:50:01;19.30;;;11.45;;
62050;SDS011;48008;51.204;6.766;2023-03-01T11:52:45;17.80;;;10.85;;
62050;SDS011;48008;51.204;6.766;2023-03-01T12:01:49;19.92;;;10.90;;
62050;SDS011;48008;51.204;6.766;2023-03-01T12:10:25;16.98;;;10.77;;
62050;SDS011;48008;51.204;6.766;2023-03-01T12:16:07;16.75;;;10.93;;
62050;SDS011;48008;51.204;6.766;2023-03-01T12:22:29;17.58;;;10.07;;
62050;SDS011;48008;51.204;6.766;2023-03-01T12:25:20;17.23;;;10.52;;
62050;SDS011;48008;51.204;6.766;2023-03-01T12:28:01;17.63;;;9.82;;
62050;SDS011;48008;51.204;6.766;2023-03-01T12:33:43;17.25;;;9.70;;
62050;SDS011;48008;51.204;6.766;2023-03-01T12:45:02;17.47;;;8.87;;
62050;SDS011;48008;51.204;6.766;2023-03-01T12:50:49;15.85;;;9.55;;
62050;SDS011;48008;51.204;6.766;2023-03-01T12:53:29;14.80;;;8.57;;
62050;SDS011;48008;51.204;6.766;2023-03-01T12:56:09;18.42;;;9.38;;
62050;SDS011;48008;51.204;6.766;2023-03-01T12:58:42;21.67;;;9.10;;
62050;SDS011;48008;51.204;6.766;2023-03-01T13:01:34;14.20;;;8.70;;
62050;SDS011;48008;51.204;6.766;2023-03-01T13:07:28;15.60;;;8.27;;
62050;SDS011;48008;51.204;6.766;2023-03-01T13:09:49;16.77;;;8.82;;
62050;SDS011;48008;51.204;6.766;2023-03-01T13:13:02;16.65;;;8.45;;
62050;SDS011;48008;51.204;6.766;2023-03-01T13:15:25;15.40;;;8.55;;
62050;SDS011;48008;51.204;6.766;2023-03-01T13:17:55;15.20;;;8.40;;
62050;SDS011;48008;51.204;6.766;2023-03-01T13:20:27;15.20;;;8.68;;
62050;SDS011;48008;51.204;6.766;2023-03-01T13:23:02;14.70;;;7.97;;
62050;SDS011;48008;51.204;6.766;2023-03-01T13:26:19;20.13;;;8.30;;
62050;SDS011;48008;51.204;6.766;2023-03-01T13:28:46;14.85;;;8.57;;
62050;SDS011;48008;51.204;6.766;2023-03-01T13:33:51;15.48;;;8.20;;
62050;SDS011;48008;51.204;6.766;2023-03-01T13:39:04;13.68;;;7.85;;
62050;SDS011;48008;51.204;6.766;2023-03-01T13:41:53;15.65;;;8.70;;
62050;SDS011;48008;51.204;6.766;2023-03-01T13:49:49;15.35;;;8.82;;
62050;SDS011;48008;51.204;6.766;2023-03-01T13:55:00;14.80;;;8.80;;
62050;SDS011;48008;51.204;6.766;2023-03-01T13:57:32;15.57;;;8.63;;
62050;SDS011;48008;51.204;6.766;2023-03-01T14:00:03;15.65;;;8.88;;
62050;SDS011;48008;51.204;6.766;2023-03-01T14:02:32;14.20;;;8.55;;
62050;SDS011;48008;51.204;6.766;2023-03-01T14:05:00;14.25;;;8.52;;
62050;SDS011;48008;51.204;6.766;2023-03-01T14:07:27;15.32;;;8.60;;
62050;SDS011;48008;51.204;6.766;2023-03-01T14:09:57;16.75;;;8.30;;
62050;SDS011;48008;51.204;6.766;2023-03-01T14:15:39;20.08;;;9.10;;
62050;SDS011;48008;51.204;6.766;2023-03-01T14:18:22;16.70;;;8.98;;
62050;SDS011;48008;51.204;6.766;2023-03-01T14:20:59;17.15;;;8.85;;
62050;SDS011;48008;51.204;6.766;2023-03-01T14:23:25;19.40;;;8.38;;
62050;SDS011;48008;51.204;6.766;2023-03-01T14:25:54;15.15;;;8.73;;
62050;SDS011;48008;51.204;6.766;2023-03-01T14:28:23;14.98;;;8.45;;
62050;SDS011;48008;51.204;6.766;2023-03-01T14:30:54;15.18;;;8.30;;
62050;SDS011;48008;51.204;6.766;2023-03-01T14:33:25;16.33;;;9.38;;
62050;SDS011;48008;51.204;6.766;2023-03-01T14:36:00;18.05;;;8.65;;
62050;SDS011;48008;51.204;6.766;2023-03-01T14:41:10;16.88;;;9.13;;
62050;SDS011;48008;51.204;6.766;2023-03-01T14:43:44;15.30;;;8.38;;
62050;SDS011;48008;51.204;6.766;2023-03-01T14:46:18;18.83;;;8.90;;
62050;SDS011;48008;51.204;6.766;2023-03-01T14:48:51;20.98;;;8.90;;
62050;SDS011;48008;51.204;6.766;2023-03-01T14:51:19;16.70;;;8.45;;
62050;SDS011;48008;51.204;6.766;2023-03-01T14:53:46;15.18;;;8.40;;
62050;SDS011;48008;51.204;6.766;2023-03-01T14:56:16;20.33;;;9.10;;
62050;SDS011;48008;51.204;6.766;2023-03-01T14:58:44;16.90;;;8.65;;
62050;SDS011;48008;51.204;6.766;2023-03-01T15:01:15;18.92;;;8.75;;
62050;SDS011;48008;51.204;6.766;2023-03-01T15:03:45;16.13;;;8.73;;
62050;SDS011;48008;51.204;6.766;2023-03-01T15:06:15;20.70;;;8.88;;
62050;SDS011;48008;51.204;6.766;2023-03-01T15:08:47;20.17;;;8.70;;
62050;SDS011;48008;51.204;6.766;2023-03-01T15:11:21;16.02;;;8.68;;
62050;SDS011;48008;51.204;6.766;2023-03-01T15:13:51;19.02;;;7.93;;
62050;SDS011;48008;51.204;6.766;2023-03-01T15:16:19;17.27;;;9.18;;
62050;SDS011;48008;51.204;6.766;2023-03-01T15:18:51;19.45;;;8.10;;
62050;SDS011;48008;51.204;6.766;2023-03-01T15:21:24;18.80;;;8.85;;
62050;SDS011;48008;51.204;6.766;2023-03-01T15:23:56;17.80;;;8.55;;
62050;SDS011;48008;51.204;6.766;2023-03-01T15:26:28;16.17;;;9.38;;
62050;SDS011;48008;51.204;6.766;2023-03-01T15:28:57;17.38;;;8.32;;
62050;SDS011;48008;51.204;6.766;2023-03-01T15:31:28;18.10;;;7.88;;
62050;SDS011;48008;51.204;6.766;2023-03-01T15:34:10;16.70;;;8.10;;
62050;SDS011;48008;51.204;6.766;2023-03-01T15:36:55;15.35;;;8.10;;
62050;SDS011;48008;51.204;6.766;2023-03-01T15:42:13;15.85;;;7.65;;
62050;SDS011;48008;51.204;6.766;2023-03-01T15:47:55;20.92;;;8.23;;
62050;SDS011;48008;51.204;6.766;2023-03-01T15:50:25;19.02;;;8.07;;
62050;SDS011;48008;51.204;6.766;2023-03-01T15:53:06;15.85;;;8.00;;
62050;SDS011;48008;51.204;6.766;2023-03-01T15:55:38;17.38;;;7.97;;
62050;SDS011;48008;51.204;6.766;2023-03-01T15:58:08;16.08;;;8.05;;
62050;SDS011;48008;51.204;6.766;2023-03-01T16:00:39;18.27;;;7.55;;